createdAt,value
2023-01-17T00:02:20.290Z,4.97
2023-01-17T00:05:02.428Z,4.57
2023-01-17T00:07:44.884Z,3.22
2023-01-17T00:10:16.228Z,3.58
2023-01-17T00:12:52.358Z,5.32
2023-01-17T00:15:23.593Z,3.42
2023-01-17T00:17:53.443Z,3.65
2023-01-17T00:20:37.925Z,3.92
2023-01-17T00:26:02.864Z,3.72
2023-01-17T00:28:34.496Z,3.63
2023-01-17T00:31:01.717Z,4.78
2023-01-17T00:33:28.712Z,4.53
2023-01-17T00:35:57.071Z,5.07
2023-01-17T00:38:25.575Z,5.13
2023-01-17T00:40:52.869Z,6.60
2023-01-17T00:43:36.309Z,6.93
2023-01-17T00:46:21.353Z,6.15
2023-01-17T00:49:03.406Z,6.63
2023-01-17T00:51:46.535Z,6.93
2023-01-17T00:54:28.904Z,6.25
2023-01-17T00:57:11.186Z,9.05
2023-01-17T00:59:53.347Z,7.88
2023-01-17T01:02:38.609Z,9.07
2023-01-17T01:05:21.416Z,8.63
2023-01-17T01:08:03.454Z,9.48
2023-01-17T01:10:45.796Z,9.00
2023-01-17T01:13:27.950Z,7.30
2023-01-17T01:16:10.100Z,7.88
2023-01-17T01:18:54.816Z,4.82
2023-01-17T01:21:36.876Z,7.68
2023-01-17T01:24:19.457Z,5.15
2023-01-17T01:27:01.534Z,6.53
2023-01-17T01:29:43.566Z,4.93
2023-01-17T01:32:25.577Z,7.20
2023-01-17T01:34:57.749Z,6.97
2023-01-17T01:37:27.310Z,5.95
2023-01-17T01:39:56.894Z,6.47
2023-01-17T01:42:26.449Z,4.15
2023-01-17T01:44:57.347Z,8.98
2023-01-17T01:47:29.983Z,6.40
2023-01-17T01:50:03.267Z,7.13
2023-01-17T01:52:34.581Z,6.70
2023-01-17T01:55:07.492Z,8.05
2023-01-17T01:57:41.545Z,5.65
2023-01-17T02:00:16.484Z,8.25
2023-01-17T02:02:46.253Z,7.90
2023-01-17T02:05:20.120Z,6.88
2023-01-17T02:07:54.357Z,5.78
2023-01-17T02:12:55.267Z,6.03
2023-01-17T02:15:31.195Z,6.60
2023-01-17T02:18:07.751Z,7.18
2023-01-17T02:21:10.842Z,12.02
2023-01-17T02:24:18.980Z,5.15
2023-01-17T02:26:58.574Z,6.40
2023-01-17T02:29:55.530Z,8.88
2023-01-17T02:32:34.893Z,5.93
2023-01-17T02:35:06.494Z,4.38
2023-01-17T02:37:46.310Z,4.43
2023-01-17T02:40:19.605Z,4.57
2023-01-17T02:42:55.488Z,6.23
2023-01-17T02:45:25.150Z,5.80
2023-01-17T02:47:57.763Z,9.35
2023-01-17T02:50:30.647Z,8.32
2023-01-17T02:53:15.897Z,5.38
2023-01-17T02:55:53.866Z,4.75
2023-01-17T02:58:33.745Z,4.10
2023-01-17T03:01:09.661Z,6.47
2023-01-17T03:03:50.881Z,6.13
2023-01-17T03:06:22.795Z,7.88
2023-01-17T03:08:54.054Z,5.47
2023-01-17T03:11:23.966Z,6.72
2023-01-17T03:13:57.638Z,4.93
2023-01-17T03:16:31.137Z,4.07
2023-01-17T03:19:03.676Z,6.72
2023-01-17T03:21:33.283Z,4.38
2023-01-17T03:24:03.088Z,3.67
2023-01-17T03:26:32.626Z,7.43
2023-01-17T03:29:02.251Z,5.60
2023-01-17T03:31:31.851Z,5.50
2023-01-17T03:34:03.996Z,5.07
2023-01-17T03:36:33.589Z,4.93
2023-01-17T03:39:03.581Z,4.25
2023-01-17T03:41:33.166Z,4.05
2023-01-17T03:44:02.744Z,3.72
2023-01-17T03:46:32.305Z,4.55
2023-01-17T03:49:04.493Z,5.82
2023-01-17T03:51:34.030Z,6.18
2023-01-17T03:54:03.778Z,4.75
2023-01-17T03:56:33.329Z,6.18
2023-01-17T03:59:03.071Z,5.82
2023-01-17T04:01:32.715Z,4.28
2023-01-17T04:04:05.037Z,5.90
2023-01-17T04:06:34.593Z,5.00
2023-01-17T04:09:04.156Z,6.75
2023-01-17T04:11:33.723Z,4.25
2023-01-17T04:14:03.315Z,5.38
2023-01-17T04:16:34.041Z,7.55
2023-01-17T04:19:06.416Z,4.53
2023-01-17T04:21:35.991Z,7.07
2023-01-17T04:24:05.533Z,7.63
2023-01-17T04:26:35.119Z,5.55
2023-01-17T04:29:04.747Z,9.07
2023-01-17T04:31:34.353Z,8.95
2023-01-17T04:34:06.538Z,8.13
2023-01-17T04:36:36.105Z,7.68
2023-01-17T04:39:05.810Z,9.77
2023-01-17T04:41:35.698Z,13.38
2023-01-17T04:44:05.314Z,11.15
2023-01-17T04:46:34.945Z,12.82
2023-01-17T04:49:07.184Z,9.35
2023-01-17T04:51:36.795Z,11.38
2023-01-17T04:54:06.467Z,9.35
2023-01-17T04:56:36.118Z,9.57
2023-01-17T04:59:05.740Z,11.63
2023-01-17T05:01:35.457Z,11.57
2023-01-17T05:04:08.059Z,220.27
2023-01-17T05:06:37.687Z,10.65
2023-01-17T05:09:07.334Z,11.55
2023-01-17T05:11:36.895Z,12.55
2023-01-17T05:14:06.509Z,9.88
2023-01-17T05:16:36.066Z,10.98
2023-01-17T05:19:08.201Z,12.98
2023-01-17T05:21:37.774Z,13.65
2023-01-17T05:24:08.080Z,12.68
2023-01-17T05:26:37.633Z,10.23
2023-01-17T05:29:07.235Z,11.55
2023-01-17T05:31:36.818Z,14.07
2023-01-17T05:34:08.967Z,12.75
2023-01-17T05:36:38.539Z,11.80
2023-01-17T05:39:08.220Z,13.75
2023-01-17T05:41:37.810Z,14.05
2023-01-17T05:44:07.813Z,14.55
2023-01-17T05:46:37.512Z,13.48
2023-01-17T05:49:09.834Z,18.40
2023-01-17T05:51:39.727Z,12.77
2023-01-17T05:54:09.690Z,12.70
2023-01-17T05:56:39.302Z,15.75
2023-01-17T05:59:08.903Z,14.60
2023-01-17T06:01:38.522Z,16.67
2023-01-17T06:04:10.820Z,19.27
2023-01-17T06:06:40.380Z,13.85
2023-01-17T06:09:11.733Z,15.10
2023-01-17T06:11:41.685Z,13.02
2023-01-17T06:14:11.272Z,17.85
2023-01-17T06:16:40.818Z,14.30
2023-01-17T06:19:12.954Z,28.15
2023-01-17T06:21:42.587Z,27.50
2023-01-17T06:24:12.179Z,31.05
2023-01-17T06:26:41.738Z,30.48
2023-01-17T06:29:11.304Z,24.77
2023-01-17T06:31:41.039Z,21.77
2023-01-17T06:34:13.247Z,26.40
2023-01-17T06:36:42.822Z,16.88
2023-01-17T06:39:14.925Z,18.10
2023-01-17T06:41:44.750Z,14.75
2023-01-17T06:44:14.541Z,15.45
2023-01-17T06:46:45.127Z,14.15
2023-01-17T06:49:17.413Z,16.08
2023-01-17T06:51:47.085Z,12.50
2023-01-17T06:54:16.854Z,18.20
2023-01-17T06:56:46.444Z,18.50
2023-01-17T06:59:15.983Z,13.35
2023-01-17T07:01:45.813Z,15.88
2023-01-17T07:04:17.973Z,16.67
2023-01-17T07:06:47.569Z,13.93
2023-01-17T07:09:17.497Z,19.05
2023-01-17T07:11:47.247Z,13.30
2023-01-17T07:14:17.224Z,15.55
2023-01-17T07:16:49.202Z,19.50
2023-01-17T07:19:21.324Z,15.57
2023-01-17T07:21:53.150Z,16.55
2023-01-17T07:24:23.576Z,15.25
2023-01-17T07:26:53.601Z,14.52
2023-01-17T07:29:23.171Z,15.05
2023-01-17T07:31:52.754Z,16.20
2023-01-17T07:34:24.905Z,14.95
2023-01-17T07:36:54.772Z,14.10
2023-01-17T07:39:24.312Z,14.88
2023-01-17T07:41:53.899Z,16.60
2023-01-17T07:44:23.466Z,15.95
2023-01-17T07:46:53.072Z,14.88
2023-01-17T07:49:25.249Z,14.73
2023-01-17T07:51:55.321Z,13.07
2023-01-17T07:54:24.866Z,15.77
2023-01-17T07:56:54.450Z,13.35
2023-01-17T07:59:24.149Z,12.30
2023-01-17T08:01:53.849Z,18.00
2023-01-17T08:04:29.058Z,15.93
2023-01-17T08:07:00.494Z,17.42
2023-01-17T08:09:30.060Z,16.23
2023-01-17T08:11:59.625Z,13.02
2023-01-17T08:14:29.198Z,18.10
2023-01-17T08:17:06.802Z,14.98
2023-01-17T08:19:38.974Z,15.95
2023-01-17T08:22:08.563Z,15.23
2023-01-17T08:24:38.271Z,17.38
2023-01-17T08:27:08.990Z,14.55
2023-01-17T08:29:41.365Z,17.42
2023-01-17T08:32:10.952Z,16.00
2023-01-17T08:34:43.110Z,17.38
2023-01-17T08:37:12.706Z,14.40
2023-01-17T08:39:42.254Z,16.48
2023-01-17T08:42:11.877Z,15.98
2023-01-17T08:44:41.471Z,14.23
2023-01-17T08:47:11.060Z,12.90
2023-01-17T08:49:43.985Z,17.85
2023-01-17T08:52:14.586Z,20.00
2023-01-17T08:54:44.165Z,17.83
2023-01-17T08:57:13.759Z,20.92
2023-01-17T08:59:44.016Z,18.48
2023-01-17T09:02:15.407Z,14.52
2023-01-17T09:04:49.472Z,13.45
2023-01-17T09:07:20.868Z,16.45
2023-01-17T09:09:50.474Z,11.05
2023-01-17T09:12:20.254Z,13.00
2023-01-17T09:14:49.814Z,14.15
2023-01-17T09:17:19.379Z,10.68
2023-01-17T09:19:51.497Z,8.77
2023-01-17T09:22:21.065Z,15.10
2023-01-17T09:24:50.625Z,11.65
2023-01-17T09:27:20.794Z,12.57
2023-01-17T09:29:50.350Z,13.15
2023-01-17T09:32:19.924Z,14.82
2023-01-17T09:34:52.278Z,11.52
2023-01-17T09:37:22.198Z,13.35
2023-01-17T09:39:51.881Z,16.58
2023-01-17T09:42:24.776Z,17.00
2023-01-17T09:44:55.462Z,16.65
2023-01-17T09:47:35.956Z,15.68
2023-01-17T09:50:19.227Z,15.40
2023-01-17T09:52:48.858Z,14.80
2023-01-17T09:55:19.959Z,11.18
2023-01-17T09:57:57.259Z,15.50
2023-01-17T10:00:46.978Z,10.68
2023-01-17T10:03:35.931Z,15.85
2023-01-17T10:06:16.807Z,22.13
2023-01-17T10:09:08.062Z,14.02
2023-01-17T10:11:49.705Z,11.27
2023-01-17T10:14:29.266Z,12.68
2023-01-17T10:17:06.324Z,13.23
2023-01-17T10:19:47.240Z,13.30
2023-01-17T10:22:59.237Z,15.27
2023-01-17T10:25:36.974Z,13.77
2023-01-17T10:28:09.952Z,8.10
2023-01-17T10:30:43.435Z,11.10
2023-01-17T10:33:17.673Z,13.68
2023-01-17T10:35:57.088Z,16.80
2023-01-17T10:38:35.046Z,10.45
2023-01-17T10:41:08.905Z,7.63
2023-01-17T10:43:48.320Z,8.57
2023-01-17T10:46:20.544Z,12.00
2023-01-17T10:48:52.243Z,12.02
2023-01-17T10:51:35.201Z,8.05
2023-01-17T10:54:18.095Z,8.73
2023-01-17T10:56:47.720Z,13.25
2023-01-17T10:59:27.000Z,9.38
2023-01-17T11:01:56.626Z,10.50
2023-01-17T11:04:35.098Z,31.40
2023-01-17T11:07:16.128Z,12.55
2023-01-17T11:09:49.663Z,8.48
2023-01-17T11:12:25.766Z,10.88
2023-01-17T11:15:01.296Z,11.38
2023-01-17T11:17:31.817Z,12.68
2023-01-17T11:20:21.711Z,10.80
2023-01-17T11:23:09.782Z,7.63
2023-01-17T11:25:41.972Z,8.07
2023-01-17T11:28:23.755Z,18.80
2023-01-17T11:30:58.356Z,9.15
2023-01-17T11:33:45.335Z,10.10
2023-01-17T11:36:21.815Z,10.98
2023-01-17T11:38:59.106Z,10.95
2023-01-17T11:41:36.216Z,11.77
2023-01-17T11:44:21.068Z,15.38
2023-01-17T11:46:50.769Z,13.77
2023-01-17T11:49:26.912Z,9.80
2023-01-17T11:51:57.504Z,13.82
2023-01-17T11:54:29.870Z,8.63
2023-01-17T11:57:03.777Z,10.15
2023-01-17T11:59:35.190Z,12.45
2023-01-17T12:02:34.656Z,13.68
2023-01-17T12:05:15.432Z,11.65
2023-01-17T12:07:48.449Z,12.75
2023-01-17T12:10:21.275Z,11.85
2023-01-17T12:13:11.650Z,10.32
2023-01-17T12:15:53.668Z,15.23
2023-01-17T12:18:35.619Z,10.52
2023-01-17T12:21:15.974Z,9.70
2023-01-17T12:24:01.784Z,9.27
2023-01-17T12:26:38.944Z,7.55
2023-01-17T12:29:41.584Z,13.05
2023-01-17T12:32:37.694Z,10.02
2023-01-17T12:35:13.680Z,9.38
2023-01-17T12:37:45.016Z,9.73
2023-01-17T12:40:22.961Z,9.45
2023-01-17T12:42:56.551Z,4.80
2023-01-17T12:45:32.209Z,6.93
2023-01-17T12:48:08.723Z,7.93
2023-01-17T12:50:41.441Z,10.05
2023-01-17T12:53:18.211Z,9.93
2023-01-17T12:55:53.429Z,12.68
2023-01-17T12:58:25.139Z,7.40
2023-01-17T13:01:03.228Z,5.82
2023-01-17T13:03:43.475Z,5.28
2023-01-17T13:06:19.579Z,7.38
2023-01-17T13:08:51.541Z,6.07
2023-01-17T13:11:25.697Z,11.27
2023-01-17T13:16:32.770Z,8.02
2023-01-17T13:19:10.345Z,8.15
2023-01-17T13:21:40.014Z,5.13
2023-01-17T13:24:25.096Z,7.28
2023-01-17T13:27:05.378Z,12.60
2023-01-17T13:29:39.480Z,6.60
2023-01-17T13:34:59.430Z,8.90
2023-01-17T13:37:59.723Z,6.80
2023-01-17T13:40:37.538Z,11.90
2023-01-17T13:43:08.656Z,13.43
2023-01-17T13:45:39.492Z,8.88
2023-01-17T13:48:30.573Z,7.82
2023-01-17T13:51:03.908Z,9.52
2023-01-17T13:54:00.306Z,6.88
2023-01-17T13:56:32.445Z,8.57
2023-01-17T13:59:21.462Z,6.28
2023-01-17T14:01:55.488Z,8.68
2023-01-17T14:04:26.760Z,9.60
2023-01-17T14:07:03.960Z,7.50
2023-01-17T14:09:41.941Z,8.30
2023-01-17T14:12:28.019Z,13.38
2023-01-17T14:15:00.623Z,10.32
2023-01-17T14:17:49.828Z,7.28
2023-01-17T14:20:48.138Z,9.75
2023-01-17T14:23:35.753Z,7.97
2023-01-17T14:26:20.609Z,8.20
2023-01-17T14:28:50.188Z,11.15
2023-01-17T14:31:19.860Z,6.68
2023-01-17T14:33:49.574Z,9.98
2023-01-17T14:36:28.022Z,6.43
2023-01-17T14:39:00.196Z,7.47
2023-01-17T14:41:31.330Z,8.88
2023-01-17T14:44:01.210Z,9.57
2023-01-17T14:46:32.297Z,7.93
2023-01-17T14:49:03.928Z,10.95
2023-01-17T14:51:35.543Z,10.45
2023-01-17T14:54:21.711Z,7.63
2023-01-17T14:56:51.338Z,8.63
2023-01-17T14:59:23.079Z,7.80
2023-01-17T15:02:06.702Z,11.80
2023-01-17T15:04:39.678Z,5.45
2023-01-17T15:07:11.015Z,6.90
2023-01-17T15:09:46.336Z,8.27
2023-01-17T15:12:16.639Z,8.07
2023-01-17T15:14:47.918Z,9.90
2023-01-17T15:17:21.138Z,7.93
2023-01-17T15:19:52.346Z,7.07
2023-01-17T15:22:23.649Z,12.27
2023-01-17T15:24:56.188Z,10.73
2023-01-17T15:27:26.018Z,10.40
2023-01-17T15:29:59.140Z,10.18
2023-01-17T15:32:31.433Z,15.13
2023-01-17T15:35:03.059Z,10.20
2023-01-17T15:37:35.271Z,8.27
2023-01-17T15:40:09.412Z,10.75
2023-01-17T15:45:15.658Z,8.50
2023-01-17T15:47:45.299Z,12.93
2023-01-17T15:50:31.235Z,8.63
2023-01-17T15:53:01.964Z,13.60
2023-01-17T15:55:37.200Z,8.63
2023-01-17T15:58:08.152Z,14.75
2023-01-17T16:00:42.043Z,10.55
2023-01-17T16:03:24.567Z,15.10
2023-01-17T16:05:57.824Z,11.50
2023-01-17T16:08:33.222Z,13.50
2023-01-17T16:11:07.100Z,19.48
2023-01-17T16:13:38.650Z,13.32
2023-01-17T16:16:20.142Z,10.85
2023-01-17T16:18:49.996Z,9.35
2023-01-17T16:21:27.587Z,13.45
2023-01-17T16:23:57.833Z,10.38
2023-01-17T16:26:30.473Z,12.60
2023-01-17T16:29:00.029Z,14.13
2023-01-17T16:31:29.611Z,14.32
2023-01-17T16:33:59.572Z,12.40
2023-01-17T16:36:29.156Z,13.20
2023-01-17T16:38:58.712Z,14.15
2023-01-17T16:41:30.849Z,13.30
2023-01-17T16:44:02.549Z,17.45
2023-01-17T16:46:32.697Z,19.45
2023-01-17T16:49:03.443Z,17.23
2023-01-17T16:51:34.494Z,14.77
2023-01-17T16:54:04.217Z,14.80
2023-01-17T16:56:36.411Z,24.17
2023-01-17T16:59:06.013Z,20.02
2023-01-17T17:01:35.779Z,20.15
2023-01-17T17:04:05.360Z,20.10
2023-01-17T17:06:34.907Z,30.42
2023-01-17T17:09:04.731Z,42.80
2023-01-17T17:11:36.891Z,36.97
2023-01-17T17:14:06.511Z,29.42
2023-01-17T17:16:36.104Z,22.98
2023-01-17T17:19:07.243Z,28.60
2023-01-17T17:21:38.301Z,25.48
2023-01-17T17:24:08.582Z,27.42
2023-01-17T17:26:40.811Z,27.98
2023-01-17T17:29:12.708Z,24.52
2023-01-17T17:31:44.635Z,30.63
2023-01-17T17:34:18.370Z,29.13
2023-01-17T17:36:48.548Z,23.77
2023-01-17T17:39:18.542Z,23.45
2023-01-17T17:41:50.957Z,27.27
2023-01-17T17:44:20.527Z,26.75
2023-01-17T17:46:51.427Z,30.80
2023-01-17T17:49:22.219Z,28.27
2023-01-17T17:51:51.991Z,28.58
2023-01-17T17:54:22.189Z,37.03
2023-01-17T17:56:54.368Z,42.03
2023-01-17T17:59:24.026Z,53.83
2023-01-17T18:01:54.727Z,41.13
2023-01-17T18:04:24.359Z,32.72
2023-01-17T18:06:53.932Z,29.48
2023-01-17T18:09:23.536Z,38.00
2023-01-17T18:11:55.889Z,34.30
2023-01-17T18:14:25.461Z,36.30
2023-01-17T18:16:55.051Z,35.55
2023-01-17T18:19:26.918Z,38.08
2023-01-17T18:21:58.123Z,38.72
2023-01-17T18:24:29.777Z,33.83
2023-01-17T18:27:02.220Z,33.30
2023-01-17T18:29:31.917Z,44.35
2023-01-17T18:32:01.547Z,32.83
2023-01-17T18:34:31.320Z,42.30
2023-01-17T18:37:01.056Z,65.43
2023-01-17T18:39:32.179Z,67.18
2023-01-17T18:42:04.334Z,42.47
2023-01-17T18:44:33.918Z,45.53
2023-01-17T18:47:05.548Z,53.17
2023-01-17T18:49:36.338Z,69.03
2023-01-17T18:52:08.016Z,95.15
2023-01-17T18:54:37.713Z,58.58
2023-01-17T18:57:10.075Z,54.03
2023-01-17T18:59:39.667Z,49.13
2023-01-17T19:02:09.230Z,49.80
2023-01-17T19:04:38.822Z,45.58
2023-01-17T19:07:08.396Z,44.75
2023-01-17T19:09:38.513Z,71.50
2023-01-17T19:12:10.938Z,56.40
2023-01-17T19:14:40.528Z,58.15
2023-01-17T19:17:10.091Z,48.25
2023-01-17T19:19:39.685Z,53.20
2023-01-17T19:22:09.250Z,39.50
2023-01-17T19:24:38.830Z,47.10
2023-01-17T19:27:13.064Z,52.83
2023-01-17T19:32:12.100Z,55.67
2023-01-17T19:34:41.661Z,59.75
2023-01-17T19:37:11.589Z,57.08
2023-01-17T19:39:41.162Z,64.30
2023-01-17T19:42:15.662Z,55.00
2023-01-17T19:44:45.714Z,60.83
2023-01-17T19:47:15.404Z,54.65
2023-01-17T19:49:45.666Z,54.75
2023-01-17T19:52:15.250Z,49.47
2023-01-17T19:54:44.912Z,56.72
2023-01-17T19:57:17.872Z,56.60
2023-01-17T19:59:47.460Z,55.42
2023-01-17T20:02:17.467Z,56.75
2023-01-17T20:04:47.405Z,60.30
2023-01-17T20:07:16.955Z,59.08
2023-01-17T20:09:46.534Z,55.85
2023-01-17T20:12:18.676Z,54.08
2023-01-17T20:14:49.852Z,60.55
2023-01-17T20:17:19.437Z,58.38
2023-01-17T20:19:49.041Z,53.08
2023-01-17T20:22:18.592Z,62.92
2023-01-17T20:24:48.187Z,68.90
2023-01-17T20:27:21.494Z,62.15
2023-01-17T20:29:52.312Z,65.97
2023-01-17T20:32:21.866Z,62.35
2023-01-17T20:34:51.467Z,62.67
2023-01-17T20:37:21.020Z,67.53
2023-01-17T20:39:50.641Z,67.40
2023-01-17T20:42:23.189Z,67.10
2023-01-17T20:44:52.825Z,65.03
2023-01-17T20:47:22.379Z,69.88
2023-01-17T20:49:51.946Z,73.00
2023-01-17T20:52:21.512Z,93.78
2023-01-17T20:54:51.848Z,75.13
2023-01-17T20:57:24.250Z,66.50
2023-01-17T20:59:53.810Z,59.95
2023-01-17T21:02:23.419Z,61.70
2023-01-17T21:04:53.021Z,62.10
2023-01-17T21:07:22.584Z,60.33
2023-01-17T21:09:52.143Z,64.57
2023-01-17T21:12:24.311Z,58.30
2023-01-17T21:14:53.905Z,66.32
2023-01-17T21:17:23.471Z,75.40
2023-01-17T21:19:53.049Z,65.80
2023-01-17T21:22:22.623Z,66.63
2023-01-17T21:24:54.080Z,63.08
2023-01-17T21:27:26.662Z,66.43
2023-01-17T21:29:57.107Z,69.90
2023-01-17T21:32:29.126Z,81.55
2023-01-17T21:34:58.768Z,82.50
2023-01-17T21:37:28.315Z,70.53
2023-01-17T21:39:57.889Z,76.07
2023-01-17T21:42:31.218Z,76.68
2023-01-17T21:45:01.088Z,67.38
2023-01-17T21:47:30.682Z,74.82
2023-01-17T21:50:00.244Z,73.70
2023-01-17T21:52:31.644Z,69.40
2023-01-17T21:55:13.720Z,71.68
2023-01-17T21:57:58.743Z,74.75
2023-01-17T22:00:28.513Z,70.13
2023-01-17T22:02:59.041Z,67.40
2023-01-17T22:05:28.685Z,66.85
2023-01-17T22:08:10.728Z,80.78
2023-01-17T22:10:44.687Z,78.93
2023-01-17T22:13:18.457Z,80.22
2023-01-17T22:15:48.529Z,95.00
2023-01-17T22:18:18.099Z,85.68
2023-01-17T22:20:47.676Z,82.47
2023-01-17T22:23:17.231Z,70.85
2023-01-17T22:25:46.879Z,73.40
2023-01-17T22:28:19.122Z,69.30
2023-01-17T22:30:48.733Z,65.03
2023-01-17T22:33:18.274Z,69.35
2023-01-17T22:35:47.851Z,75.60
2023-01-17T22:38:17.390Z,87.65
2023-01-17T22:40:46.947Z,106.10
2023-01-17T22:43:19.078Z,104.70
2023-01-17T22:45:48.645Z,77.10
2023-01-17T22:48:18.209Z,76.82
2023-01-17T22:50:48.010Z,77.85
2023-01-17T22:53:17.563Z,72.20
2023-01-17T22:55:47.186Z,72.45
2023-01-17T22:58:19.315Z,78.93
2023-01-17T23:00:49.724Z,80.88
2023-01-17T23:03:19.479Z,67.68
2023-01-17T23:05:49.158Z,64.07
2023-01-17T23:08:20.107Z,62.92
2023-01-17T23:11:02.203Z,63.28
2023-01-17T23:13:34.426Z,66.57
2023-01-17T23:16:20.188Z,71.22
2023-01-17T23:19:02.291Z,63.60
2023-01-17T23:21:52.517Z,83.13
2023-01-17T23:24:22.078Z,97.40
2023-01-17T23:27:03.915Z,71.25
2023-01-17T23:29:36.497Z,69.03
2023-01-17T23:32:06.214Z,72.88
2023-01-17T23:34:35.982Z,64.90
2023-01-17T23:37:05.586Z,69.57
2023-01-17T23:39:35.106Z,70.63
2023-01-17T23:42:17.167Z,72.43
2023-01-17T23:44:49.395Z,68.50
2023-01-17T23:47:19.055Z,73.53
2023-01-17T23:49:48.651Z,81.78
2023-01-17T23:52:18.293Z,77.40
2023-01-17T23:54:48.556Z,80.18
2023-01-17T23:57:18.648Z,73.18
2023-01-17T23:59:51.203Z,64.63
